Time;durP1;ratioP1;P1;durP2;ratioP2;P2;SDS_P1;SDS_P2;PMS_P1;PMS_P2;Temp;Humidity;BMP_temperature;BMP_pressure;BME280_temperature;BME280_humidity;BME280_pressure;Samples;Min_cycle;Max_cycle;Signal;HPM_P1;HPM_P2
2023/05/27 00:00:08;;;;;;;143.32;44.72;;;15.40;99.90;;;;;;4996304;28;20050;-65
2023/05/27 00:02:34;;;;;;;130.70;44.03;;;15.50;99.90;;;;;;4995716;28;20042;-65
2023/05/27 00:05:00;;;;;;;129.98;42.90;;;15.40;99.90;;;;;;4996003;28;20515;-64
2023/05/27 00:07:27;;;;;;;149.05;44.35;;;15.30;99.90;;;;;;4996017;28;20030;-65
2023/05/27 00:09:54;;;;;;;143.50;44.00;;;15.30;99.90;;;;;;4995629;28;20121;-65
2023/05/27 00:12:20;;;;;;;121.28;40.88;;;15.30;99.90;;;;;;4995882;28;20084;-65
2023/05/27 00:14:46;;;;;;;124.82;43.08;;;15.30;99.90;;;;;;4995885;28;20034;-65
2023/05/27 00:17:15;;;;;;;112.78;43.03;;;15.30;99.90;;;;;;4995664;28;20468;-65
2023/05/27 00:19:47;;;;;;;112.43;42.00;;;15.30;99.90;;;;;;4995939;28;20333;-64
2023/05/27 00:22:13;;;;;;;124.35;45.63;;;15.50;99.90;;;;;;4995376;28;20038;-64
2023/05/27 00:24:41;;;;;;;129.48;46.83;;;15.50;99.90;;;;;;4995709;28;20057;-64
2023/05/27 00:27:08;;;;;;;122.93;45.70;;;15.30;99.90;;;;;;4995626;28;20539;-64
2023/05/27 00:29:34;;;;;;;129.75;48.72;;;15.30;99.90;;;;;;4978236;28;20034;-64
2023/05/27 00:32:04;;;;;;;176.45;54.72;;;15.30;99.90;;;;;;4995425;28;20107;-64
2023/05/27 00:34:32;;;;;;;176.95;56.42;;;15.20;99.90;;;;;;4995595;28;20022;-64
2023/05/27 00:36:58;;;;;;;211.52;63.00;;;15.30;99.90;;;;;;4994869;28;20034;-64
2023/05/27 00:39:25;;;;;;;201.52;60.38;;;15.30;99.90;;;;;;4995083;28;20038;-65
2023/05/27 00:41:51;;;;;;;302.85;69.82;;;15.20;99.90;;;;;;4978043;28;20038;-65
2023/05/27 00:44:18;;;;;;;242.95;62.38;;;15.20;99.90;;;;;;4995122;28;20057;-65
2023/05/27 00:46:48;;;;;;;281.45;65.82;;;15.20;99.90;;;;;;4995410;28;20034;-64
2023/05/27 00:49:16;;;;;;;152.85;41.63;;;15.30;99.90;;;;;;4995325;28;20034;-64
2023/05/27 00:51:42;;;;;;;163.88;45.03;;;15.30;99.90;;;;;;4977706;28;20034;-64
2023/05/27 00:54:10;;;;;;;95.55;35.88;;;15.40;99.90;;;;;;4995200;28;20030;-64
2023/05/27 00:56:36;;;;;;;80.55;32.38;;;15.30;99.90;;;;;;4977806;28;20354;-64
2023/05/27 00:59:03;;;;;;;56.72;25.75;;;15.30;99.90;;;;;;4977737;28;20026;-64
2023/05/27 01:01:29;;;;;;;51.30;23.30;;;15.30;99.90;;;;;;4977931;28;20053;-64
2023/05/27 01:03:56;;;;;;;44.00;22.40;;;15.20;99.90;;;;;;4995037;28;20086;-64
2023/05/27 01:06:53;;;;;;;44.17;22.20;;;15.20;99.90;;;;;;4995147;28;20045;-64
2023/05/27 01:09:40;;;;;;;47.45;21.65;;;15.20;99.90;;;;;;4994956;28;20116;-64
2023/05/27 01:12:07;;;;;;;43.55;22.33;;;15.20;99.90;;;;;;4977583;28;20030;-65
2023/05/27 01:14:36;;;;;;;46.20;21.23;;;15.20;99.90;;;;;;4994973;28;20030;-64
2023/05/27 01:17:05;;;;;;;37.20;18.40;;;15.20;99.90;;;;;;4977625;28;20053;-64
2023/05/27 01:19:34;;;;;;;36.20;20.38;;;15.20;99.90;;;;;;4995042;28;20113;-64
2023/05/27 01:22:01;;;;;;;28.35;17.48;;;15.20;99.90;;;;;;4994914;28;20037;-64
2023/05/27 01:24:28;;;;;;;36.55;18.40;;;15.20;99.90;;;;;;4994917;28;20042;-64
2023/05/27 01:27:00;;;;;;;33.72;19.23;;;15.20;99.90;;;;;;4977253;28;20030;-64
2023/05/27 01:29:28;;;;;;;31.58;16.42;;;15.10;99.90;;;;;;4994957;28;20064;-64
2023/05/27 01:32:29;;;;;;;28.23;14.50;;;15.10;99.90;;;;;;4994785;28;20039;-64
2023/05/27 01:35:18;;;;;;;24.83;13.25;;;15.10;99.90;;;;;;4977299;28;20030;-64
2023/05/27 01:37:45;;;;;;;26.58;14.65;;;15.20;99.90;;;;;;4986975;28;20500;-65
2023/05/27 01:40:14;;;;;;;25.48;12.65;;;15.20;99.90;;;;;;4977384;28;20388;-65
2023/05/27 01:42:43;;;;;;;22.23;13.75;;;15.10;99.90;;;;;;4977073;28;20492;-65
2023/05/27 01:45:09;;;;;;;26.52;14.48;;;15.10;99.90;;;;;;4977251;28;20037;-65
2023/05/27 01:47:36;;;;;;;21.35;13.52;;;15.10;99.90;;;;;;4977245;28;20039;-64
2023/05/27 01:50:03;;;;;;;17.58;12.07;;;15.00;99.90;;;;;;4980053;28;20053;-64
2023/05/27 01:52:29;;;;;;;20.02;13.07;;;15.00;99.90;;;;;;4998454;28;20419;-64
2023/05/27 01:54:56;;;;;;;20.70;12.35;;;14.90;99.90;;;;;;4980955;28;20041;-64
2023/05/27 01:57:24;;;;;;;19.58;11.75;;;14.90;99.90;;;;;;4980941;28;20034;-64
2023/05/27 01:59:51;;;;;;;22.88;11.18;;;15.00;99.90;;;;;;4981049;28;20046;-64
2023/05/27 02:02:17;;;;;;;23.63;13.52;;;15.00;99.90;;;;;;4980875;28;20070;-64
2023/05/27 02:04:43;;;;;;;28.50;15.38;;;15.10;99.90;;;;;;4998318;28;20499;-64
2023/05/27 02:07:10;;;;;;;27.95;13.98;;;15.00;99.90;;;;;;4980851;28;20460;-64
2023/05/27 02:09:36;;;;;;;24.02;13.98;;;14.90;99.90;;;;;;4980715;28;20049;-64
2023/05/27 02:12:02;;;;;;;22.25;13.10;;;15.00;99.90;;;;;;4980447;28;20038;-64
2023/05/27 02:14:31;;;;;;;21.45;14.23;;;15.00;99.90;;;;;;4980712;28;20039;-64
2023/05/27 02:16:57;;;;;;;25.27;13.77;;;15.00;99.90;;;;;;4980534;28;20031;-64
2023/05/27 02:19:24;;;;;;;26.60;14.35;;;14.90;99.90;;;;;;4980605;28;20030;-64
2023/05/27 02:21:50;;;;;;;29.20;15.68;;;15.00;99.90;;;;;;4980591;28;20045;-64
2023/05/27 02:24:16;;;;;;;27.52;15.25;;;14.90;99.90;;;;;;4980464;28;20046;-64
2023/05/27 02:26:42;;;;;;;29.85;15.07;;;15.00;99.90;;;;;;4980294;28;20427;-64
2023/05/27 02:29:08;;;;;;;26.55;14.05;;;15.00;99.90;;;;;;4980344;28;20038;-64
2023/05/27 02:31:34;;;;;;;25.20;14.45;;;14.90;99.90;;;;;;4980085;28;20026;-64
2023/05/27 02:34:00;;;;;;;27.25;15.13;;;14.90;99.90;;;;;;4980227;28;20117;-64
2023/05/27 02:36:26;;;;;;;29.02;15.15;;;14.90;99.90;;;;;;4980229;28;20438;-64
2023/05/27 02:38:53;;;;;;;23.95;14.05;;;14.90;99.90;;;;;;4980014;28;20026;-64
2023/05/27 02:41:19;;;;;;;33.00;15.68;;;14.90;99.90;;;;;;4980139;28;20029;-64
2023/05/27 02:43:45;;;;;;;33.78;16.38;;;14.90;99.90;;;;;;4979992;28;20550;-64
2023/05/27 02:46:11;;;;;;;46.42;20.60;;;14.90;99.90;;;;;;4997338;28;20057;-63
2023/05/27 02:48:37;;;;;;;43.60;21.75;;;14.90;99.90;;;;;;4980217;28;20057;-64
2023/05/27 02:51:03;;;;;;;42.45;20.88;;;14.90;99.90;;;;;;4997495;28;20062;-64
2023/05/27 02:53:29;;;;;;;39.08;20.88;;;14.80;99.90;;;;;;4979683;28;20084;-64
2023/05/27 02:55:55;;;;;;;43.95;20.67;;;14.80;99.90;;;;;;4979977;28;20498;-64
2023/05/27 02:58:21;;;;;;;44.33;19.00;;;14.70;99.90;;;;;;4997317;28;20057;-64
2023/05/27 03:00:47;;;;;;;48.50;23.00;;;14.70;99.90;;;;;;4996200;28;20022;-64
2023/05/27 03:03:15;;;;;;;45.95;22.23;;;14.70;99.90;;;;;;4997721;28;20037;-64
2023/05/27 03:05:41;;;;;;;47.20;21.83;;;14.70;99.90;;;;;;4997855;28;20487;-64
2023/05/27 03:08:08;;;;;;;44.78;21.90;;;14.70;99.90;;;;;;4996973;28;20018;-64
2023/05/27 03:10:35;;;;;;;43.83;22.60;;;14.70;99.90;;;;;;4979465;28;20030;-64
2023/05/27 03:13:01;;;;;;;42.75;23.00;;;14.70;99.90;;;;;;4996940;28;20634;-64
2023/05/27 03:15:31;;;;;;;42.83;23.05;;;14.80;99.90;;;;;;4979612;28;20034;-63
2023/05/27 03:17:57;;;;;;;56.80;26.80;;;14.80;99.90;;;;;;4996931;28;20035;-64
2023/05/27 03:20:24;;;;;;;65.90;27.88;;;14.90;99.90;;;;;;4979365;28;20057;-64
2023/05/27 03:22:50;;;;;;;63.08;27.50;;;14.80;99.90;;;;;;4996947;28;20034;-64
2023/05/27 03:25:16;;;;;;;50.83;25.30;;;14.80;99.90;;;;;;4979494;28;20038;-64
2023/05/27 03:27:43;;;;;;;62.95;28.52;;;14.80;99.90;;;;;;4979023;28;20031;-64
2023/05/27 03:30:13;;;;;;;74.03;30.13;;;14.80;99.90;;;;;;4979239;28;20038;-63
2023/05/27 03:32:45;;;;;;;93.60;34.60;;;14.90;99.90;;;;;;4979206;28;20083;-64
2023/05/27 03:35:11;;;;;;;90.03;37.20;;;14.90;99.90;;;;;;4979054;28;20092;-64
2023/05/27 03:37:37;;;;;;;81.53;33.78;;;15.00;99.90;;;;;;4979185;28;20122;-63
2023/05/27 03:40:07;;;;;;;82.90;33.13;;;15.00;99.90;;;;;;4979062;28;20030;-64
2023/05/27 03:42:34;;;;;;;80.25;33.22;;;15.10;99.90;;;;;;4978843;28;20054;-64
2023/05/27 03:45:00;;;;;;;88.38;36.03;;;15.10;99.90;;;;;;4978969;28;20124;-63
2023/05/27 03:47:27;;;;;;;88.63;35.25;;;15.10;99.90;;;;;;4978964;28;20057;-63
2023/05/27 03:49:53;;;;;;;89.80;35.75;;;15.10;99.90;;;;;;4978608;28;20064;-63
2023/05/27 03:52:19;;;;;;;109.78;40.15;;;15.10;99.90;;;;;;4996313;28;20026;-63
2023/05/27 03:54:45;;;;;;;96.78;38.17;;;15.20;99.90;;;;;;4996162;28;20033;-63
2023/05/27 03:57:13;;;;;;;65.00;29.13;;;15.20;99.90;;;;;;4978632;28;20030;-63
2023/05/27 03:59:39;;;;;;;63.38;28.70;;;15.20;99.90;;;;;;4996122;28;20045;-63
2023/05/27 04:02:05;;;;;;;59.47;27.88;;;15.10;99.90;;;;;;4996074;28;20030;-63
2023/05/27 04:04:31;;;;;;;68.63;28.10;;;15.20;99.90;;;;;;4995963;28;20484;-63
2023/05/27 04:06:57;;;;;;;66.85;29.10;;;15.20;99.90;;;;;;4978540;28;20121;-64
2023/05/27 04:09:23;;;;;;;72.18;30.65;;;15.10;99.90;;;;;;4978178;28;20440;-64
2023/05/27 04:11:49;;;;;;;79.22;33.47;;;15.20;99.90;;;;;;4995696;28;20031;-64
2023/05/27 04:14:14;;;;;;;81.28;32.97;;;15.30;99.90;;;;;;4995861;28;20022;-64
2023/05/27 04:16:41;;;;;;;79.10;33.00;;;15.20;99.90;;;;;;4995815;28;20542;-64
2023/05/27 04:19:07;;;;;;;76.47;34.25;;;15.30;99.90;;;;;;4978219;28;20031;-64
2023/05/27 04:21:33;;;;;;;73.72;32.30;;;15.30;99.90;;;;;;4978444;28;20078;-64
2023/05/27 04:24:02;;;;;;;78.30;31.65;;;15.30;99.90;;;;;;4978093;28;20026;-64
2023/05/27 04:26:29;;;;;;;73.28;31.15;;;15.30;99.90;;;;;;4978111;28;20472;-64
2023/05/27 04:28:59;;;;;;;60.55;27.70;;;15.30;99.90;;;;;;4995621;28;20033;-63
2023/05/27 04:31:28;;;;;;;;;;;15.40;99.90;;;;;;4978376;28;20037;-64
2023/05/27 04:34:00;;;;;;;45.92;22.77;;;15.40;99.90;;;;;;4977856;28;20322;-64
2023/05/27 04:36:27;;;;;;;40.30;20.98;;;15.40;99.90;;;;;;4995338;28;20030;-64
2023/05/27 04:39:01;;;;;;;40.63;20.63;;;15.40;99.90;;;;;;4977963;28;20369;-63
2023/05/27 04:41:29;;;;;;;38.33;19.30;;;15.40;99.90;;;;;;4978080;28;20323;-63
2023/05/27 04:44:11;;;;;;;32.58;18.25;;;15.50;99.90;;;;;;4977681;28;20123;-64
2023/05/27 04:46:43;;;;;;;30.60;17.58;;;15.50;99.90;;;;;;4977771;28;20034;-64
2023/05/27 04:49:10;;;;;;;28.23;16.17;;;15.50;99.90;;;;;;4977718;28;20034;-64
2023/05/27 04:51:37;;;;;;;28.48;15.55;;;15.50;99.90;;;;;;4977878;28;20034;-64
2023/05/27 04:54:03;;;;;;;28.83;14.73;;;15.50;99.90;;;;;;4977875;28;20029;-64
2023/05/27 04:56:29;;;;;;;32.88;14.73;;;15.50;99.90;;;;;;4961746;28;20479;-64
2023/05/27 04:58:58;;;;;;;23.27;14.02;;;15.50;99.90;;;;;;4977785;28;20025;-64
2023/05/27 05:01:39;;;;;;;22.42;13.35;;;15.50;99.90;;;;;;4977515;28;20031;-63
2023/05/27 05:04:13;;;;;;;25.90;13.15;;;15.50;99.90;;;;;;4977753;28;20038;-63
2023/05/27 05:06:52;;;;;;;22.30;13.23;;;15.50;99.90;;;;;;4977695;28;20073;-63
2023/05/27 05:09:21;;;;;;;22.23;13.13;;;15.60;99.90;;;;;;4977426;28;20495;-63
2023/05/27 05:11:47;;;;;;;20.30;12.63;;;15.60;99.90;;;;;;4977554;28;20034;-63
2023/05/27 05:14:13;;;;;;;22.50;12.60;;;15.70;99.90;;;;;;4977747;28;20038;-63
2023/05/27 05:16:39;;;;;;;21.00;12.00;;;15.80;99.90;;;;;;4977586;28;20034;-63
2023/05/27 05:19:07;;;;;;;20.65;13.65;;;15.80;99.90;;;;;;4977550;28;20084;-63
2023/05/27 05:21:36;;;;;;;21.60;13.00;;;15.90;99.90;;;;;;4977542;28;20084;-63
2023/05/27 05:24:05;;;;;;;21.13;12.55;;;15.90;99.90;;;;;;4978717;28;20093;-63
2023/05/27 05:26:32;;;;;;;22.25;12.80;;;15.90;99.90;;;;;;4981515;28;20034;-63
2023/05/27 05:29:01;;;;;;;22.83;14.02;;;15.90;99.90;;;;;;4981373;28;20395;-63
2023/05/27 05:31:27;;;;;;;20.25;11.85;;;15.90;99.90;;;;;;4981458;28;20038;-63
2023/05/27 05:33:55;;;;;;;23.75;14.20;;;16.00;99.90;;;;;;4981329;28;20026;-63
2023/05/27 05:36:21;;;;;;;23.38;12.65;;;16.00;99.90;;;;;;4981442;28;20023;-63
2023/05/27 05:38:54;;;;;;;21.50;13.27;;;15.90;99.90;;;;;;4981287;28;20030;-63
2023/05/27 05:41:20;;;;;;;25.92;13.30;;;16.00;99.90;;;;;;4998848;28;20031;-63
2023/05/27 05:43:47;;;;;;;24.50;13.10;;;16.00;99.90;;;;;;4977837;28;20054;-64
2023/05/27 05:46:13;;;;;;;21.38;13.40;;;16.00;99.90;;;;;;4977843;28;20023;-64
2023/05/27 05:48:39;;;;;;;21.63;13.18;;;16.00;99.90;;;;;;4979179;28;20115;-64
2023/05/27 05:51:09;;;;;;;23.67;13.88;;;16.10;99.90;;;;;;4977868;28;20450;-63
2023/05/27 05:53:35;;;;;;;18.98;13.73;;;16.20;99.90;;;;;;4977773;28;20035;-63
2023/05/27 05:56:01;;;;;;;38.58;17.65;;;16.20;99.90;;;;;;4979032;28;20547;-64
2023/05/27 05:58:28;;;;;;;27.80;18.42;;;16.30;99.90;;;;;;4977488;28;20030;-64
2023/05/27 06:00:54;;;;;;;34.75;20.52;;;16.30;99.90;;;;;;4978899;28;20031;-63
2023/05/27 06:03:36;;;;;;;40.20;21.58;;;16.40;99.90;;;;;;4977524;28;20388;-64
2023/05/27 06:06:05;;;;;;;39.72;22.27;;;16.50;99.90;;;;;;4977536;28;20041;-63
2023/05/27 06:08:34;;;;;;;36.95;21.05;;;16.70;99.90;;;;;;4977523;28;20436;-64
2023/05/27 06:11:05;;;;;;;37.05;21.60;;;16.70;99.90;;;;;;4977344;28;20125;-63
2023/05/27 06:13:33;;;;;;;40.35;21.80;;;16.70;99.90;;;;;;4977343;28;20488;-63
2023/05/27 06:16:00;;;;;;;45.40;23.40;;;16.60;99.90;;;;;;4977502;28;20045;-63
2023/05/27 06:18:27;;;;;;;45.75;24.95;;;16.70;99.90;;;;;;4977252;28;20035;-63
2023/05/27 06:20:53;;;;;;;52.55;30.30;;;16.90;99.90;;;;;;4977260;28;20069;-63
2023/05/27 06:23:22;;;;;;;45.15;27.48;;;17.20;99.90;;;;;;4977170;28;20053;-63
2023/05/27 06:26:06;;;;;;;57.13;31.58;;;17.30;99.90;;;;;;4978399;28;20066;-63
2023/05/27 06:28:40;;;;;;;61.08;34.70;;;17.40;99.90;;;;;;4977238;28;20034;-63
2023/05/27 06:31:05;;;;;;;55.17;32.42;;;17.50;99.90;;;;;;4977049;28;20440;-63
2023/05/27 06:33:32;;;;;;;55.63;31.50;;;17.60;99.90;;;;;;4976973;28;20070;-64
2023/05/27 06:35:58;;;;;;;47.78;27.27;;;17.70;99.90;;;;;;4978154;28;20480;-63
2023/05/27 06:38:24;;;;;;;49.47;28.08;;;17.80;99.90;;;;;;4978237;28;20022;-63
2023/05/27 06:40:52;;;;;;;47.78;27.25;;;17.80;99.90;;;;;;4977075;28;20050;-63
2023/05/27 06:43:19;;;;;;;44.25;26.92;;;17.70;99.90;;;;;;4976705;28;20043;-63
2023/05/27 06:46:11;;;;;;;50.22;27.55;;;17.80;99.90;;;;;;4974785;28;20035;-63
2023/05/27 06:48:55;;;;;;;45.97;24.90;;;17.80;99.90;;;;;;4978194;28;20126;-63
2023/05/27 06:51:23;;;;;;;42.00;24.85;;;17.80;99.90;;;;;;4976700;28;20050;-63
2023/05/27 06:53:49;;;;;;;44.25;26.30;;;17.80;99.90;;;;;;4976660;28;20034;-63
2023/05/27 06:56:23;;;;;;;53.05;30.08;;;17.70;99.90;;;;;;4976538;28;20054;-63
2023/05/27 06:58:52;;;;;;;62.05;32.20;;;17.80;99.90;;;;;;4978070;28;20408;-64
2023/05/27 07:01:19;;;;;;;59.67;32.67;;;17.70;99.90;;;;;;4976544;28;20483;-64
2023/05/27 07:03:50;;;;;;;59.85;32.63;;;17.80;99.90;;;;;;4977906;28;20050;-63
2023/05/27 07:06:22;;;;;;;62.35;33.15;;;17.60;99.90;;;;;;4976255;28;20174;-63
2023/05/27 07:08:50;;;;;;;54.75;31.05;;;17.60;99.90;;;;;;4976266;28;20027;-63
2023/05/27 07:11:23;;;;;;;54.15;29.20;;;17.70;99.90;;;;;;4976238;28;20031;-63
2023/05/27 07:13:50;;;;;;;65.57;35.17;;;17.70;99.90;;;;;;4976239;28;20030;-63
2023/05/27 07:16:21;;;;;;;71.05;35.97;;;17.60;99.90;;;;;;4976261;28;20058;-63
2023/05/27 07:18:47;;;;;;;70.15;35.47;;;17.70;99.90;;;;;;4976249;28;20073;-64
2023/05/27 07:21:13;;;;;;;64.95;34.85;;;17.60;99.90;;;;;;4976168;28;20117;-63
2023/05/27 07:23:40;;;;;;;63.90;34.63;;;17.70;99.90;;;;;;4976094;28;20481;-63
2023/05/27 07:26:26;;;;;;;53.33;28.48;;;17.80;99.90;;;;;;4977127;28;20373;-63
2023/05/27 07:28:54;;;;;;;52.80;28.98;;;18.00;99.90;;;;;;4976095;28;20491;-62
2023/05/27 07:31:29;;;;;;;47.22;26.80;;;18.00;99.90;;;;;;4975750;28;20126;-63
2023/05/27 07:33:59;;;;;;;43.35;26.58;;;18.10;99.90;;;;;;4975979;28;20547;-63
2023/05/27 07:36:25;;;;;;;58.92;27.27;;;18.10;99.90;;;;;;4975909;28;20481;-63
2023/05/27 07:38:51;;;;;;;46.58;24.73;;;18.10;99.90;;;;;;4975805;28;20086;-63
2023/05/27 07:41:18;;;;;;;48.60;23.80;;;18.10;99.90;;;;;;4975995;28;20461;-63
2023/05/27 07:43:44;;;;;;;42.30;23.58;;;18.20;99.90;;;;;;4975557;28;20042;-63
2023/05/27 07:46:10;;;;;;;53.45;26.15;;;18.10;99.90;;;;;;4976442;28;20485;-63
2023/05/27 07:48:39;;;;;;;45.85;24.15;;;18.00;99.90;;;;;;4975508;28;20030;-64
2023/05/27 07:51:06;;;;;;;51.38;26.38;;;18.00;99.90;;;;;;4975693;28;20494;-63
2023/05/27 07:53:34;;;;;;;51.35;25.60;;;18.00;99.90;;;;;;4975566;28;20031;-64
2023/05/27 07:56:00;;;;;;;50.30;26.88;;;18.00;99.90;;;;;;4975502;28;20433;-63
2023/05/27 07:58:26;;;;;;;37.78;23.52;;;18.10;99.90;;;;;;4975316;28;20061;-63
2023/05/27 08:01:07;;;;;;;44.65;23.83;;;18.10;99.90;;;;;;4975220;28;20030;-64
2023/05/27 08:03:33;;;;;;;37.95;22.02;;;18.00;99.90;;;;;;4976599;28;20088;-63
2023/05/27 08:06:22;;;;;;;32.63;21.35;;;18.00;99.90;;;;;;4976440;28;20039;-63
2023/05/27 08:09:11;;;;;;;29.88;20.73;;;17.90;99.90;;;;;;4975170;28;20061;-63
2023/05/27 08:11:56;;;;;;;38.25;22.33;;;17.90;99.90;;;;;;4976249;28;20046;-63
2023/05/27 08:14:28;;;;;;;35.10;22.13;;;17.80;99.90;;;;;;4976421;28;20023;-63
2023/05/27 08:17:12;;;;;;;35.03;21.05;;;17.90;99.90;;;;;;4976398;28;20408;-63
2023/05/27 08:20:01;;;;;;;30.15;20.00;;;17.70;99.90;;;;;;4968284;28;20539;-63
2023/05/27 08:22:48;;;;;;;28.50;19.73;;;17.90;99.90;;;;;;4945661;28;20035;-63
2023/05/27 08:25:30;;;;;;;27.77;18.80;;;18.00;99.90;;;;;;4974826;28;20058;-63
2023/05/27 08:28:21;;;;;;;30.48;19.42;;;18.10;99.90;;;;;;4971700;28;20024;-63
2023/05/27 08:30:53;;;;;;;26.40;18.55;;;18.30;99.90;;;;;;4956904;29;20394;-63
2023/05/27 08:33:26;;;;;;;27.83;18.67;;;18.50;99.90;;;;;;4971478;28;20035;-63
2023/05/27 08:35:53;;;;;;;27.92;19.70;;;18.60;99.90;;;;;;4971371;28;20493;-63
2023/05/27 08:38:19;;;;;;;32.40;18.75;;;18.80;99.90;;;;;;4955452;29;20028;-63
2023/05/27 08:40:46;;;;;;;27.83;19.40;;;18.80;99.90;;;;;;4971723;28;20472;-63
2023/05/27 08:43:13;;;;;;;36.13;21.30;;;19.00;99.90;;;;;;4968239;28;20051;-63
2023/05/27 08:45:43;;;;;;;27.90;19.75;;;19.10;99.90;;;;;;4948374;29;20042;-63
2023/05/27 08:48:10;;;;;;;29.65;19.60;;;19.20;99.90;;;;;;4955313;29;20164;-63
2023/05/27 08:50:38;;;;;;;32.83;20.95;;;19.20;99.90;;;;;;4955328;29;20389;-63
2023/05/27 08:53:05;;;;;;;33.72;22.73;;;19.10;99.90;;;;;;4955300;29;20035;-63
2023/05/27 08:55:33;;;;;;;39.00;24.85;;;19.20;99.90;;;;;;4955370;29;20031;-63
2023/05/27 08:58:01;;;;;;;43.78;28.23;;;19.30;99.90;;;;;;4955896;28;20027;-63
2023/05/27 09:00:30;;;;;;;48.85;30.00;;;19.30;99.90;;;;;;4955012;29;20555;-63
2023/05/27 09:03:04;;;;;;;35.03;24.23;;;19.30;99.90;;;;;;4954950;29;20027;-63
2023/05/27 09:05:33;;;;;;;36.03;25.08;;;19.40;99.90;;;;;;4956494;28;20047;-63
2023/05/27 09:07:59;;;;;;;36.83;24.45;;;19.50;99.90;;;;;;4956288;29;20037;-63
2023/05/27 09:10:40;;;;;;;33.22;22.75;;;19.70;99.90;;;;;;4956312;29;20031;-62
2023/05/27 09:13:07;;;;;;;31.55;20.88;;;19.90;99.90;;;;;;4956534;28;20070;-63
2023/05/27 09:15:34;;;;;;;31.95;22.90;;;19.90;99.90;;;;;;4956193;29;20019;-63
2023/05/27 09:18:01;;;;;;;48.35;30.55;;;19.90;99.90;;;;;;4956135;28;20030;-63
2023/05/27 09:20:29;;;;;;;49.40;32.65;;;20.00;99.90;;;;;;4956067;28;20110;-63
2023/05/27 09:23:03;;;;;;;36.63;24.02;;;19.90;99.90;;;;;;4956291;29;20027;-63
2023/05/27 09:25:30;;;;;;;33.95;20.10;;;19.90;99.90;;;;;;4956088;28;20031;-63
2023/05/27 09:27:56;;;;;;;34.72;21.60;;;20.00;99.90;;;;;;4955940;28;20063;-63
2023/05/27 09:30:24;;;;;;;34.70;23.73;;;20.10;99.90;;;;;;4956294;28;20114;-63
2023/05/27 09:32:50;;;;;;;33.72;22.02;;;20.10;99.90;;;;;;4956120;28;20039;-63
2023/05/27 09:35:17;;;;;;;35.67;25.10;;;20.20;99.90;;;;;;4956060;28;20031;-63
2023/05/27 09:37:45;;;;;;;33.80;24.23;;;20.20;99.90;;;;;;4956098;28;20031;-62
2023/05/27 09:40:14;;;;;;;39.33;24.75;;;20.40;99.90;;;;;;4955951;28;20015;-62
2023/05/27 09:42:44;;;;;;;34.83;22.65;;;20.50;99.90;;;;;;4968118;28;20052;-63
2023/05/27 09:45:18;;;;;;;28.23;19.20;;;20.50;99.90;;;;;;4994725;28;20066;-63
2023/05/27 09:47:48;;;;;;;29.35;19.98;;;20.50;99.90;;;;;;4994701;28;20061;-62
2023/05/27 09:50:16;;;;;;;30.20;19.58;;;20.50;99.90;;;;;;4994623;28;20428;-63
2023/05/27 09:52:43;;;;;;;42.67;23.63;;;20.50;99.90;;;;;;4994580;28;20065;-63
2023/05/27 09:55:12;;;;;;;36.40;22.38;;;20.30;99.90;;;;;;4994613;28;20496;-63
2023/05/27 09:57:39;;;;;;;32.10;20.65;;;20.40;99.90;;;;;;4994711;28;20023;-63
2023/05/27 10:00:17;;;;;;;30.48;19.88;;;20.40;99.90;;;;;;4994552;28;20026;-63
2023/05/27 10:02:45;;;;;;;28.10;18.75;;;20.50;99.90;;;;;;4994500;28;20059;-63
2023/05/27 10:05:14;;;;;;;28.08;18.15;;;20.80;99.90;;;;;;4994514;28;20448;-62
2023/05/27 10:07:42;;;;;;;30.88;20.10;;;21.00;99.90;;;;;;4994263;28;20031;-62
2023/05/27 10:10:18;;;;;;;27.73;16.92;;;21.40;99.90;;;;;;4995444;28;20038;-62
2023/05/27 10:12:46;;;;;;;32.25;18.80;;;21.70;99.90;;;;;;4997981;28;20043;-63
2023/05/27 10:15:32;;;;;;;21.73;16.73;;;21.70;99.90;;;;;;4998074;28;20070;-63
2023/05/27 10:18:02;;;;;;;30.50;18.60;;;21.70;99.90;;;;;;4998217;28;20092;-63
2023/05/27 10:20:38;;;;;;;30.30;19.88;;;21.70;99.90;;;;;;4998115;28;20061;-62
2023/05/27 10:23:20;;;;;;;30.60;18.88;;;21.70;99.90;;;;;;4997902;28;20033;-63
2023/05/27 10:26:00;;;;;;;24.23;15.55;;;21.70;99.90;;;;;;4997702;28;20041;-62
2023/05/27 10:28:32;;;;;;;22.08;15.52;;;21.70;99.90;;;;;;4997834;28;20030;-63
2023/05/27 10:31:09;;;;;;;21.25;15.25;;;21.70;99.90;;;;;;4997914;28;20153;-63
2023/05/27 10:33:40;;;;;;;18.58;14.27;;;21.80;99.90;;;;;;4997650;28;20030;-63
2023/05/27 10:36:31;;;;;;;21.40;14.57;;;21.70;99.90;;;;;;4997593;28;20023;-63
2023/05/27 10:39:00;;;;;;;20.05;14.55;;;21.60;99.90;;;;;;4997636;28;20080;-63
2023/05/27 10:41:27;;;;;;;22.52;15.52;;;21.40;99.90;;;;;;4997823;28;20109;-63
2023/05/27 10:43:59;;;;;;;23.80;15.55;;;21.30;99.90;;;;;;4997486;28;20050;-62
2023/05/27 10:46:26;;;;;;;25.27;17.00;;;21.20;99.90;;;;;;4997406;28;20116;-62
2023/05/27 10:48:52;;;;;;;26.50;16.73;;;21.30;99.90;;;;;;4997632;28;20542;-62
2023/05/27 10:51:18;;;;;;;19.60;15.82;;;21.30;99.90;;;;;;4997359;28;20033;-62
2023/05/27 10:53:46;;;;;;;19.23;14.80;;;21.30;99.90;;;;;;4997191;28;20030;-62
2023/05/27 10:56:12;;;;;;;24.95;16.05;;;21.30;99.90;;;;;;4997406;28;20117;-63
2023/05/27 10:58:38;;;;;;;22.23;15.50;;;21.40;99.90;;;;;;4997271;28;20054;-63
2023/05/27 11:01:10;;;;;;;21.88;16.05;;;21.60;99.90;;;;;;4997389;28;20027;-62
2023/05/27 11:03:45;;;;;;;26.17;14.75;;;21.80;99.90;;;;;;4997234;28;20034;-63
2023/05/27 11:06:13;;;;;;;22.83;15.98;;;21.90;99.90;;;;;;4996930;28;20054;-62
2023/05/27 11:08:39;;;;;;;26.55;16.83;;;21.80;99.90;;;;;;4997104;28;20404;-63
2023/05/27 11:11:09;;;;;;;28.25;18.10;;;21.90;99.90;;;;;;4997039;28;20105;-63
2023/05/27 11:13:39;;;;;;;25.60;16.88;;;21.90;99.90;;;;;;4997070;28;20590;-63
2023/05/27 11:16:07;;;;;;;31.80;18.08;;;22.00;99.90;;;;;;4997030;28;20038;-63
2023/05/27 11:18:41;;;;;;;25.45;19.00;;;22.00;99.90;;;;;;4996967;28;20053;-62
2023/05/27 11:21:09;;;;;;;35.95;21.95;;;22.10;99.90;;;;;;4996278;28;20030;-62
2023/05/27 11:23:45;;;;;;;37.50;24.20;;;22.10;99.90;;;;;;4996706;28;20054;-62
2023/05/27 11:26:15;;;;;;;40.92;24.92;;;22.30;99.90;;;;;;4996683;28;20026;-62
2023/05/27 11:28:55;;;;;;;36.20;22.37;;;22.70;99.90;;;;;;4996891;28;20038;-62
2023/05/27 11:31:29;;;;;;;42.95;21.60;;;22.80;99.90;;;;;;4996875;28;20092;-62
2023/05/27 11:33:55;;;;;;;31.33;20.48;;;22.80;99.90;;;;;;4996515;28;20058;-62
2023/05/27 11:36:25;;;;;;;35.78;22.92;;;22.70;99.90;;;;;;4996660;28;20409;-62
2023/05/27 11:38:55;;;;;;;32.28;20.98;;;22.60;99.90;;;;;;4996778;28;20022;-62
2023/05/27 11:41:25;;;;;;;31.58;20.45;;;22.70;99.90;;;;;;4996401;28;20026;-62
2023/05/27 11:44:05;;;;;;;27.50;19.23;;;22.80;99.90;;;;;;4996449;28;20050;-62
2023/05/27 11:46:38;;;;;;;32.45;19.35;;;23.00;99.90;;;;;;4996527;28;20031;-63
2023/05/27 11:49:06;;;;;;;28.23;18.77;;;23.30;98.70;;;;;;4996266;28;20030;-62
2023/05/27 11:51:36;;;;;;;22.75;16.33;;;23.30;98.30;;;;;;4996382;28;20039;-62
2023/05/27 11:54:02;;;;;;;27.35;18.13;;;23.20;97.80;;;;;;4996236;28;20034;-62
2023/05/27 11:56:28;;;;;;;25.90;18.33;;;23.30;97.50;;;;;;4996241;28;20480;-62
2023/05/27 11:58:55;;;;;;;41.83;21.83;;;23.40;98.10;;;;;;4996108;28;20030;-62
2023/05/27 12:01:22;;;;;;;29.60;20.83;;;23.50;98.40;;;;;;4996147;28;20058;-62
2023/05/27 12:03:48;;;;;;;41.22;23.30;;;23.50;97.40;;;;;;4996119;28;20038;-62
2023/05/27 12:06:14;;;;;;;27.52;18.13;;;23.70;98.50;;;;;;4996046;28;20039;-62
2023/05/27 12:08:41;;;;;;;28.83;19.17;;;24.10;98.00;;;;;;4995901;28;20058;-62
2023/05/27 12:11:08;;;;;;;27.70;17.33;;;23.70;95.80;;;;;;4995890;28;20068;-62
2023/05/27 12:13:34;;;;;;;27.58;18.45;;;23.70;96.00;;;;;;4995843;28;20038;-63
2023/05/27 12:16:00;;;;;;;27.13;15.85;;;23.20;98.90;;;;;;4995942;28;20453;-63
2023/05/27 12:18:26;;;;;;;19.60;15.27;;;23.50;98.00;;;;;;4995784;28;20034;-62
2023/05/27 12:20:52;;;;;;;16.33;13.23;;;23.70;98.10;;;;;;4995622;28;20053;-62
2023/05/27 12:23:18;;;;;;;18.95;12.85;;;24.00;97.60;;;;;;4995730;28;20440;-63
2023/05/27 12:25:44;;;;;;;19.20;13.93;;;24.40;97.70;;;;;;4995689;28;20415;-62
2023/05/27 12:28:10;;;;;;;17.20;13.45;;;24.70;94.80;;;;;;4976296;28;20031;-63
2023/05/27 12:30:37;;;;;;;26.38;14.82;;;24.80;95.40;;;;;;4976106;28;20026;-63
2023/05/27 12:33:04;;;;;;;19.73;14.02;;;24.70;92.40;;;;;;4976039;28;20034;-63
2023/05/27 12:35:31;;;;;;;25.75;14.60;;;24.80;93.70;;;;;;4976204;28;20030;-63